createdAt,value
2023-10-08T00:01:15.614Z,18.30
2023-10-08T00:03:54.904Z,18.36
2023-10-08T00:06:22.808Z,18.40
2023-10-08T00:08:51.146Z,18.40
2023-10-08T00:11:19.523Z,18.40
2023-10-08T00:13:46.444Z,18.40
2023-10-08T00:16:18.745Z,18.40
2023-10-08T00:18:53.310Z,18.40
2023-10-08T00:21:28.765Z,18.46
2023-10-08T00:23:59.437Z,18.50
2023-10-08T00:26:29.168Z,18.50
2023-10-08T00:29:33.416Z,18.50
2023-10-08T00:32:00.136Z,18.50
2023-10-08T00:34:28.576Z,18.50
2023-10-08T00:36:55.627Z,18.50
2023-10-08T00:39:25.252Z,18.52
2023-10-08T00:42:00.830Z,18.60
2023-10-08T00:44:31.453Z,18.60
2023-10-08T00:47:02.458Z,18.60
2023-10-08T00:49:39.210Z,18.60
2023-10-08T00:52:09.983Z,18.68
2023-10-08T00:54:56.036Z,18.70
2023-10-08T00:57:27.383Z,18.70
2023-10-08T00:59:54.544Z,18.80
2023-10-08T01:02:26.007Z,18.80
2023-10-08T01:04:52.955Z,18.86
2023-10-08T01:07:20.021Z,18.90
2023-10-08T01:10:01.095Z,18.90
2023-10-08T01:12:33.931Z,18.90
2023-10-08T01:15:17.445Z,18.90
2023-10-08T01:17:59.335Z,18.96
2023-10-08T01:20:36.027Z,19.00
2023-10-08T01:23:23.650Z,19.00
2023-10-08T01:25:58.822Z,19.00
2023-10-08T01:28:30.407Z,19.00
2023-10-08T01:31:01.816Z,19.04
2023-10-08T01:33:29.731Z,19.10
2023-10-08T01:36:03.081Z,19.10
2023-10-08T01:38:30.782Z,19.10
2023-10-08T01:40:57.940Z,19.16
2023-10-08T01:43:26.900Z,19.20
2023-10-08T01:45:53.954Z,19.20
2023-10-08T01:48:28.688Z,19.20
2023-10-08T01:51:02.585Z,19.20
2023-10-08T01:53:29.590Z,19.20
2023-10-08T01:55:56.452Z,19.20
2023-10-08T01:58:26.400Z,19.20
2023-10-08T02:00:59.913Z,19.20
2023-10-08T02:03:28.806Z,19.26
2023-10-08T02:06:00.140Z,19.26
2023-10-08T02:08:27.692Z,19.20
2023-10-08T02:10:54.673Z,19.20
2023-10-08T02:13:21.330Z,19.20
2023-10-08T02:15:54.468Z,19.20
2023-10-08T02:18:26.575Z,19.22
2023-10-08T02:20:54.164Z,19.26
2023-10-08T02:23:21.039Z,19.30
2023-10-08T02:25:49.503Z,19.30
2023-10-08T02:28:17.234Z,19.30
2023-10-08T02:30:44.850Z,19.30
2023-10-08T02:33:17.857Z,19.30
2023-10-08T02:35:47.237Z,19.30
2023-10-08T02:38:22.766Z,19.30
2023-10-08T02:40:49.835Z,19.30
2023-10-08T02:43:17.038Z,19.30
2023-10-08T02:45:48.864Z,19.30
2023-10-08T02:48:17.401Z,19.30
2023-10-08T02:50:47.884Z,19.30
2023-10-08T02:53:21.313Z,19.30
2023-10-08T02:55:48.268Z,19.30
2023-10-08T02:58:16.397Z,19.30
2023-10-08T03:00:45.243Z,19.30
2023-10-08T03:03:17.905Z,19.30
2023-10-08T03:05:54.038Z,19.30
2023-10-08T03:08:24.394Z,19.30
2023-10-08T03:10:56.741Z,19.30
2023-10-08T03:13:24.342Z,19.30
2023-10-08T03:16:09.545Z,19.30
2023-10-08T03:18:37.858Z,19.30
2023-10-08T03:21:22.521Z,19.30
2023-10-08T03:23:52.893Z,19.30
2023-10-08T03:26:31.846Z,19.30
2023-10-08T03:28:59.435Z,19.30
2023-10-08T03:31:53.055Z,19.30
2023-10-08T03:34:21.236Z,19.30
2023-10-08T03:36:51.032Z,19.30
2023-10-08T03:39:20.402Z,19.30
2023-10-08T03:42:14.100Z,19.30
2023-10-08T03:44:44.076Z,19.30
2023-10-08T03:47:13.369Z,19.30
2023-10-08T03:49:46.729Z,19.30
2023-10-08T03:52:16.621Z,19.30
2023-10-08T03:54:50.332Z,19.20
2023-10-08T03:57:20.797Z,19.20
2023-10-08T03:59:49.731Z,19.20
2023-10-08T04:02:25.024Z,19.20
2023-10-08T04:04:58.000Z,19.20
2023-10-08T04:07:46.007Z,19.20
2023-10-08T04:10:12.690Z,19.20
2023-10-08T04:12:45.537Z,19.20
2023-10-08T04:15:17.985Z,19.20
2023-10-08T04:17:46.059Z,19.16
2023-10-08T04:20:35.147Z,19.14
2023-10-08T04:23:05.863Z,19.12
2023-10-08T04:25:34.169Z,19.10
2023-10-08T04:28:02.280Z,19.10
2023-10-08T04:30:38.020Z,19.10
2023-10-08T04:33:09.478Z,19.10
2023-10-08T04:35:37.870Z,19.10
2023-10-08T04:38:09.717Z,19.10
2023-10-08T04:40:48.844Z,19.10
2023-10-08T04:43:26.763Z,19.10
2023-10-08T04:46:04.017Z,19.10
2023-10-08T04:48:34.296Z,19.04
2023-10-08T04:51:02.373Z,19.00
2023-10-08T04:53:38.544Z,19.00
2023-10-08T04:56:14.767Z,19.00
2023-10-08T04:58:42.186Z,19.00
2023-10-08T05:01:18.781Z,19.00
2023-10-08T05:03:59.899Z,19.00
2023-10-08T05:06:37.952Z,19.00
2023-10-08T05:09:22.213Z,19.00
2023-10-08T05:11:52.574Z,19.00
2023-10-08T05:14:34.288Z,19.00
2023-10-08T05:17:13.045Z,19.00
2023-10-08T05:19:49.758Z,19.00
2023-10-08T05:22:19.802Z,19.00
2023-10-08T05:25:08.664Z,19.00
2023-10-08T05:27:50.273Z,19.00
2023-10-08T05:30:37.971Z,19.00
2023-10-08T05:33:18.331Z,19.00
2023-10-08T05:35:47.470Z,19.00
2023-10-08T05:38:32.227Z,19.00
2023-10-08T05:41:00.325Z,19.04
2023-10-08T05:43:42.530Z,19.00
2023-10-08T05:46:23.490Z,19.02
2023-10-08T05:49:08.243Z,19.04
2023-10-08T05:51:49.723Z,19.00
2023-10-08T05:54:32.197Z,19.00
2023-10-08T05:57:26.414Z,18.98
2023-10-08T05:59:55.785Z,18.90
2023-10-08T06:02:49.471Z,18.82
2023-10-08T06:05:27.412Z,18.80
2023-10-08T06:07:55.825Z,18.74
2023-10-08T06:10:31.430Z,18.70
2023-10-08T06:13:17.919Z,18.70
2023-10-08T06:16:05.551Z,18.70
2023-10-08T06:18:34.611Z,18.70
2023-10-08T06:21:10.121Z,18.74
2023-10-08T06:23:43.253Z,18.80
2023-10-08T06:26:13.315Z,18.80
2023-10-08T06:28:43.053Z,18.90
2023-10-08T06:31:13.757Z,18.90
2023-10-08T06:33:42.808Z,18.90
2023-10-08T06:36:10.680Z,18.98
2023-10-08T06:38:39.542Z,19.00
2023-10-08T06:41:17.921Z,19.10
2023-10-08T06:44:04.706Z,19.10
2023-10-08T06:46:34.172Z,19.10
2023-10-08T06:49:05.400Z,19.10
2023-10-08T06:51:34.711Z,19.22
2023-10-08T06:54:04.165Z,19.34
2023-10-08T06:56:32.875Z,19.40
2023-10-08T06:59:09.707Z,19.40
2023-10-08T07:01:48.658Z,19.40
2023-10-08T07:04:15.711Z,19.50
2023-10-08T07:06:51.917Z,19.50
2023-10-08T07:09:30.359Z,19.60
2023-10-08T07:11:58.771Z,19.70
2023-10-08T07:14:28.880Z,19.70
2023-10-08T07:17:01.872Z,19.70
2023-10-08T07:19:34.154Z,19.80
2023-10-08T07:22:04.648Z,19.90
2023-10-08T07:24:36.011Z,19.90
2023-10-08T07:27:10.101Z,19.90
2023-10-08T07:29:37.694Z,20.06
2023-10-08T07:32:16.152Z,20.20
2023-10-08T07:34:45.637Z,20.40
2023-10-08T07:37:13.513Z,20.60
2023-10-08T07:39:48.248Z,20.70
2023-10-08T07:42:15.473Z,20.80
2023-10-08T07:44:42.610Z,20.82
2023-10-08T07:47:14.895Z,20.90
2023-10-08T07:49:45.781Z,20.92
2023-10-08T07:52:17.754Z,21.00
2023-10-08T07:54:45.048Z,21.00
2023-10-08T07:57:27.682Z,21.00
2023-10-08T08:00:02.631Z,20.90
2023-10-08T08:02:40.185Z,20.90
2023-10-08T08:05:07.412Z,20.90
2023-10-08T08:07:34.556Z,20.90
2023-10-08T08:10:02.120Z,20.90
2023-10-08T08:12:29.799Z,20.80
2023-10-08T08:14:56.777Z,20.88
2023-10-08T08:17:24.209Z,20.90
2023-10-08T08:19:53.533Z,20.90
2023-10-08T08:22:23.792Z,20.90
2023-10-08T08:25:16.375Z,21.00
2023-10-08T08:27:47.852Z,21.02
2023-10-08T08:30:17.727Z,21.02
2023-10-08T08:32:51.589Z,21.10
2023-10-08T08:35:21.311Z,21.10
2023-10-08T08:37:51.103Z,21.10
2023-10-08T08:40:20.487Z,21.06
2023-10-08T08:42:49.713Z,21.00
2023-10-08T08:45:25.957Z,21.00
2023-10-08T08:47:53.722Z,21.00
2023-10-08T08:50:22.660Z,21.00
2023-10-08T08:52:50.102Z,21.00
2023-10-08T08:55:19.040Z,21.00
2023-10-08T08:57:50.845Z,21.00
2023-10-08T09:00:20.273Z,21.00
2023-10-08T09:02:50.011Z,21.00
2023-10-08T09:05:27.639Z,20.90
2023-10-08T09:07:59.123Z,20.90
2023-10-08T09:10:30.653Z,20.90
2023-10-08T09:13:01.738Z,20.90
2023-10-08T09:15:29.478Z,21.00
2023-10-08T09:17:57.831Z,21.00
2023-10-08T09:20:24.886Z,21.10
2023-10-08T09:23:18.665Z,21.20
2023-10-08T09:25:51.592Z,21.30
2023-10-08T09:28:20.005Z,21.30
2023-10-08T09:30:47.312Z,21.32
2023-10-08T09:33:16.437Z,21.40
2023-10-08T09:35:46.721Z,21.40
2023-10-08T09:38:13.524Z,21.40
2023-10-08T09:40:43.230Z,21.40
2023-10-08T09:43:11.727Z,21.50
2023-10-08T09:45:48.749Z,21.50
2023-10-08T09:48:18.304Z,21.60
2023-10-08T09:50:48.567Z,21.70
2023-10-08T09:53:20.966Z,21.80
2023-10-08T09:55:58.464Z,21.90
2023-10-08T09:58:29.370Z,22.00
2023-10-08T10:00:58.873Z,22.10
2023-10-08T10:03:28.105Z,22.20
2023-10-08T10:06:00.226Z,22.20
2023-10-08T10:08:29.832Z,22.20
2023-10-08T10:11:00.965Z,22.20
2023-10-08T10:13:42.575Z,22.20
2023-10-08T10:16:11.915Z,22.20
2023-10-08T10:18:40.043Z,22.20
2023-10-08T10:21:14.163Z,22.30
2023-10-08T10:23:51.926Z,22.30
2023-10-08T10:26:36.567Z,22.40
2023-10-08T10:29:10.312Z,22.40
2023-10-08T10:31:39.357Z,22.50
2023-10-08T10:34:09.823Z,22.40
2023-10-08T10:36:40.695Z,22.40
2023-10-08T10:39:17.875Z,22.40
2023-10-08T10:41:52.672Z,22.38
2023-10-08T10:44:20.748Z,22.30
2023-10-08T10:47:13.690Z,22.30
2023-10-08T10:49:51.783Z,22.30
2023-10-08T10:52:46.075Z,22.30
2023-10-08T10:55:15.545Z,22.30
2023-10-08T10:57:58.320Z,22.30
2023-10-08T11:00:33.534Z,22.30
2023-10-08T11:03:17.789Z,22.30
2023-10-08T11:05:49.769Z,22.30
2023-10-08T11:08:19.633Z,22.24
2023-10-08T11:10:52.568Z,22.30
2023-10-08T11:13:29.893Z,22.20
2023-10-08T11:15:59.483Z,22.20
2023-10-08T11:18:31.516Z,22.20
2023-10-08T11:21:19.134Z,22.10
2023-10-08T11:23:57.202Z,22.10
2023-10-08T11:26:39.831Z,22.10
2023-10-08T11:29:15.596Z,22.10
2023-10-08T11:31:43.342Z,22.10
2023-10-08T11:34:14.805Z,22.10
2023-10-08T11:36:54.812Z,22.08
2023-10-08T11:39:22.916Z,22.00
2023-10-08T11:42:05.075Z,22.00
2023-10-08T11:44:37.751Z,22.00
2023-10-08T11:47:13.549Z,22.00
2023-10-08T11:49:49.379Z,22.00
2023-10-08T11:52:16.967Z,22.00
2023-10-08T11:54:45.269Z,22.00
2023-10-08T11:57:12.718Z,22.00
2023-10-08T11:59:40.927Z,22.08
2023-10-08T12:02:08.137Z,22.10
2023-10-08T12:04:37.811Z,22.10
2023-10-08T12:07:08.811Z,22.00
2023-10-08T12:09:38.990Z,22.00
2023-10-08T12:12:10.908Z,22.00
2023-10-08T12:14:38.788Z,22.00
2023-10-08T12:17:13.046Z,21.90
2023-10-08T12:19:44.420Z,21.90
2023-10-08T12:22:15.333Z,21.90
2023-10-08T12:24:43.706Z,21.90
2023-10-08T12:27:13.216Z,21.80
2023-10-08T12:29:40.314Z,21.80
2023-10-08T12:32:18.747Z,21.80
2023-10-08T12:34:46.244Z,21.80
2023-10-08T12:37:16.441Z,21.78
2023-10-08T12:40:01.421Z,21.70
2023-10-08T12:42:28.687Z,21.70
2023-10-08T12:44:58.934Z,21.70
2023-10-08T12:47:30.541Z,21.70
2023-10-08T12:49:58.855Z,21.70
2023-10-08T12:52:29.585Z,21.60
2023-10-08T12:54:57.179Z,21.60
2023-10-08T12:57:33.419Z,21.60
2023-10-08T13:00:00.997Z,21.66
2023-10-08T13:02:29.761Z,21.70
2023-10-08T13:04:58.709Z,21.70
2023-10-08T13:07:27.799Z,21.60
2023-10-08T13:09:54.761Z,21.60
2023-10-08T13:12:22.273Z,21.60
2023-10-08T13:14:49.348Z,21.60
2023-10-08T13:17:16.124Z,21.66
2023-10-08T13:19:42.877Z,21.70
2023-10-08T13:22:09.779Z,21.80
2023-10-08T13:24:42.810Z,21.86
2023-10-08T13:27:09.652Z,21.90
2023-10-08T13:29:36.511Z,22.00
2023-10-08T13:32:05.345Z,22.00
2023-10-08T13:34:32.748Z,22.10
2023-10-08T13:36:59.495Z,22.16
2023-10-08T13:39:26.138Z,22.20
2023-10-08T13:41:54.279Z,22.30
2023-10-08T13:44:30.873Z,22.40
2023-10-08T13:47:01.162Z,22.50
2023-10-08T13:49:28.121Z,22.40
2023-10-08T13:51:58.135Z,22.40
2023-10-08T13:54:31.349Z,22.40
2023-10-08T13:56:59.900Z,22.30
2023-10-08T13:59:27.651Z,22.30
2023-10-08T14:01:56.129Z,22.30
2023-10-08T14:04:31.812Z,22.30
2023-10-08T14:06:59.926Z,22.30
2023-10-08T14:09:33.883Z,22.30
2023-10-08T14:12:02.048Z,22.30
2023-10-08T14:14:34.588Z,22.34
2023-10-08T14:17:09.705Z,22.40
2023-10-08T14:19:41.176Z,22.40
2023-10-08T14:22:10.201Z,22.40
2023-10-08T14:24:39.412Z,22.48
2023-10-08T14:27:17.424Z,22.48
2023-10-08T14:29:53.375Z,22.40
2023-10-08T14:32:21.369Z,22.44
2023-10-08T14:34:48.750Z,22.50
2023-10-08T14:37:35.511Z,22.50
2023-10-08T14:40:21.546Z,22.40
2023-10-08T14:43:00.082Z,22.40
2023-10-08T14:45:36.225Z,22.36
2023-10-08T14:48:03.528Z,22.30
2023-10-08T14:50:34.403Z,22.30
2023-10-08T14:53:02.960Z,22.30
2023-10-08T14:55:31.145Z,22.24
2023-10-08T14:57:58.132Z,22.20
2023-10-08T15:00:28.253Z,22.20
2023-10-08T15:02:56.268Z,22.20
2023-10-08T15:05:24.301Z,22.20
2023-10-08T15:07:52.595Z,22.20
2023-10-08T15:10:20.389Z,22.10
2023-10-08T15:12:47.211Z,22.10
2023-10-08T15:15:14.382Z,22.10
2023-10-08T15:17:47.736Z,22.00
2023-10-08T15:20:18.312Z,22.00
2023-10-08T15:22:46.407Z,21.92
2023-10-08T15:25:15.624Z,21.90
2023-10-08T15:27:45.109Z,21.80
2023-10-08T15:30:19.157Z,21.70
2023-10-08T15:32:47.313Z,21.70
2023-10-08T15:35:21.710Z,21.60
2023-10-08T15:37:49.065Z,21.60
2023-10-08T15:40:19.871Z,21.60
2023-10-08T15:42:55.636Z,21.50
2023-10-08T15:45:37.961Z,21.48
2023-10-08T15:48:07.339Z,21.40
2023-10-08T15:50:34.373Z,21.40
2023-10-08T15:53:01.604Z,21.40
2023-10-08T15:55:28.313Z,21.40
2023-10-08T15:57:55.666Z,21.30
2023-10-08T16:00:22.547Z,21.30
2023-10-08T16:02:49.527Z,21.30
2023-10-08T16:05:18.460Z,21.30
2023-10-08T16:07:46.974Z,21.20
2023-10-08T16:10:13.681Z,21.20
2023-10-08T16:12:40.396Z,21.10
2023-10-08T16:15:08.163Z,21.08
2023-10-08T16:17:35.136Z,21.00
2023-10-08T16:20:10.735Z,21.00
2023-10-08T16:22:37.677Z,21.00
2023-10-08T16:25:05.079Z,21.00
2023-10-08T16:27:31.716Z,21.00
2023-10-08T16:29:58.766Z,20.96
2023-10-08T16:32:27.520Z,20.90
2023-10-08T16:34:54.339Z,20.90
2023-10-08T16:37:23.302Z,20.90
2023-10-08T16:39:52.107Z,20.90
2023-10-08T16:42:19.127Z,20.80
2023-10-08T16:44:46.515Z,20.80
2023-10-08T16:47:13.287Z,20.80
2023-10-08T16:49:39.928Z,20.70
2023-10-08T16:52:06.861Z,20.70
2023-10-08T16:54:33.550Z,20.60
2023-10-08T16:57:00.372Z,20.60
2023-10-08T16:59:27.033Z,20.60
2023-10-08T17:01:54.771Z,20.50
2023-10-08T17:04:21.687Z,20.46
2023-10-08T17:06:48.923Z,20.40
2023-10-08T17:09:17.532Z,20.40
2023-10-08T17:11:49.688Z,20.38
2023-10-08T17:14:19.393Z,20.30
2023-10-08T17:16:46.754Z,20.30
2023-10-08T17:19:14.048Z,20.30
2023-10-08T17:21:41.421Z,20.30
2023-10-08T17:24:10.449Z,20.26
2023-10-08T17:26:39.476Z,20.20
2023-10-08T17:29:09.939Z,20.20
2023-10-08T17:31:38.797Z,20.20
2023-10-08T17:34:07.398Z,20.10
2023-10-08T17:36:36.943Z,20.10
2023-10-08T17:39:10.794Z,20.10
2023-10-08T17:41:38.081Z,20.06
2023-10-08T17:44:07.438Z,20.00
2023-10-08T17:46:34.582Z,20.00
2023-10-08T17:49:01.434Z,19.90
2023-10-08T17:51:28.263Z,19.92
2023-10-08T17:53:55.396Z,19.90
2023-10-08T17:56:22.116Z,19.90
2023-10-08T17:58:48.747Z,19.90
2023-10-08T18:01:18.002Z,19.90
2023-10-08T18:03:46.523Z,19.84
2023-10-08T18:06:16.887Z,19.80
2023-10-08T18:08:45.327Z,19.80
2023-10-08T18:11:12.100Z,19.70
2023-10-08T18:13:42.002Z,19.70
2023-10-08T18:16:12.261Z,19.70
2023-10-08T18:18:40.960Z,19.70
2023-10-08T18:21:16.154Z,19.68
2023-10-08T18:23:46.583Z,19.60
2023-10-08T18:26:14.371Z,19.60
2023-10-08T18:28:45.188Z,19.56
2023-10-08T18:31:13.474Z,19.60
2023-10-08T18:33:44.656Z,19.60
2023-10-08T18:36:13.749Z,19.60
2023-10-08T18:38:42.731Z,19.60
2023-10-08T18:41:11.955Z,19.60
2023-10-08T18:43:39.986Z,19.60
2023-10-08T18:46:11.274Z,19.60
2023-10-08T18:48:42.170Z,19.60
2023-10-08T18:51:14.739Z,19.60
2023-10-08T18:53:46.264Z,19.60
2023-10-08T18:56:15.788Z,19.50
2023-10-08T18:58:44.487Z,19.50
2023-10-08T19:01:13.566Z,19.50
2023-10-08T19:03:43.129Z,19.50
2023-10-08T19:06:10.740Z,19.42
2023-10-08T19:08:41.258Z,19.40
2023-10-08T19:11:12.836Z,19.40
2023-10-08T19:13:40.956Z,19.40
2023-10-08T19:16:11.584Z,19.30
2023-10-08T19:18:42.464Z,19.30
2023-10-08T19:21:27.507Z,19.30
2023-10-08T19:23:55.325Z,19.30
2023-10-08T19:26:27.721Z,19.30
2023-10-08T19:28:57.854Z,19.28
2023-10-08T19:31:25.450Z,19.26
2023-10-08T19:33:54.055Z,19.20
2023-10-08T19:36:21.298Z,19.20
2023-10-08T19:38:48.116Z,19.10
2023-10-08T19:41:22.162Z,19.10
2023-10-08T19:43:52.961Z,19.10
2023-10-08T19:46:26.480Z,19.10
2023-10-08T19:48:54.474Z,19.10
2023-10-08T19:51:23.588Z,19.10
2023-10-08T19:53:54.316Z,19.10
2023-10-08T19:56:22.655Z,19.10
2023-10-08T19:58:49.686Z,19.10
2023-10-08T20:01:18.018Z,19.10
2023-10-08T20:03:45.690Z,19.00
2023-10-08T20:06:13.685Z,19.00
2023-10-08T20:08:40.577Z,19.00
2023-10-08T20:11:08.523Z,19.00
2023-10-08T20:13:36.581Z,19.00
2023-10-08T20:16:07.282Z,19.00
2023-10-08T20:18:36.743Z,19.00
2023-10-08T20:21:06.756Z,18.90
2023-10-08T20:23:36.972Z,18.90
2023-10-08T20:26:12.480Z,18.90
2023-10-08T20:28:39.201Z,18.80
2023-10-08T20:31:08.009Z,18.80
2023-10-08T20:33:35.770Z,18.76
2023-10-08T20:36:06.047Z,18.70
2023-10-08T20:38:33.368Z,18.70
2023-10-08T20:41:01.994Z,18.70
2023-10-08T20:43:29.937Z,18.70
2023-10-08T20:45:56.894Z,18.60
2023-10-08T20:48:25.095Z,18.60
2023-10-08T20:50:52.018Z,18.50
2023-10-08T20:53:18.604Z,18.50
2023-10-08T20:55:46.835Z,18.50
2023-10-08T20:58:16.206Z,18.50
2023-10-08T21:00:45.826Z,18.50
2023-10-08T21:03:14.137Z,18.40
2023-10-08T21:05:43.580Z,18.40
2023-10-08T21:08:13.233Z,18.40
2023-10-08T21:10:59.977Z,18.32
2023-10-08T21:13:31.464Z,18.30
2023-10-08T21:16:01.875Z,18.30
2023-10-08T21:18:31.185Z,18.20
2023-10-08T21:20:58.597Z,18.20
2023-10-08T21:23:25.611Z,18.10
2023-10-08T21:25:52.969Z,18.10
2023-10-08T21:28:20.073Z,18.08
2023-10-08T21:30:46.794Z,18.00
2023-10-08T21:33:13.860Z,17.92
2023-10-08T21:35:40.650Z,17.90
2023-10-08T21:38:09.741Z,17.82
2023-10-08T21:40:37.593Z,17.80
2023-10-08T21:43:05.354Z,17.70
2023-10-08T21:45:36.466Z,17.70
2023-10-08T21:48:03.848Z,17.60
2023-10-08T21:50:31.893Z,17.60
2023-10-08T21:52:58.652Z,17.60
2023-10-08T21:55:26.021Z,17.50
2023-10-08T21:57:54.072Z,17.50
2023-10-08T22:00:24.937Z,17.50
2023-10-08T22:02:58.181Z,17.40
2023-10-08T22:05:31.382Z,17.40
2023-10-08T22:07:59.737Z,17.40
2023-10-08T22:10:29.053Z,17.40
2023-10-08T22:13:00.269Z,17.40
2023-10-08T22:15:30.712Z,17.40
2023-10-08T22:18:08.492Z,17.40
2023-10-08T22:20:38.000Z,17.32
2023-10-08T22:23:10.481Z,17.30
2023-10-08T22:25:37.842Z,17.30
2023-10-08T22:28:19.506Z,17.30
2023-10-08T22:30:52.199Z,17.24
2023-10-08T22:33:35.125Z,17.20
2023-10-08T22:36:12.524Z,17.20
2023-10-08T22:38:39.833Z,17.10
2023-10-08T22:41:06.546Z,17.10
2023-10-08T22:43:44.237Z,17.10
2023-10-08T22:46:12.557Z,17.10
2023-10-08T22:48:44.957Z,17.10
2023-10-08T22:51:24.217Z,17.10
2023-10-08T22:53:53.240Z,17.10
2023-10-08T22:56:20.689Z,17.10
2023-10-08T22:58:49.106Z,17.02
2023-10-08T23:01:22.192Z,17.00
2023-10-08T23:03:56.124Z,17.04
2023-10-08T23:06:25.422Z,17.08
2023-10-08T23:08:55.686Z,17.06
2023-10-08T23:11:23.092Z,17.04
2023-10-08T23:13:51.638Z,17.00
2023-10-08T23:16:21.185Z,17.00
2023-10-08T23:18:52.275Z,17.00
2023-10-08T23:21:21.725Z,17.00
2023-10-08T23:23:49.093Z,17.00
2023-10-08T23:26:19.920Z,17.00
2023-10-08T23:28:46.834Z,17.00
2023-10-08T23:31:14.711Z,16.98
2023-10-08T23:33:48.669Z,16.90
2023-10-08T23:36:17.328Z,16.90
2023-10-08T23:38:54.039Z,16.90
2023-10-08T23:41:33.480Z,16.90
2023-10-08T23:44:04.202Z,16.80
2023-10-08T23:46:34.487Z,16.80
2023-10-08T23:49:18.866Z,16.80
2023-10-08T23:51:52.756Z,16.70
2023-10-08T23:54:34.420Z,16.70
2023-10-08T23:57:07.634Z,16.60
2023-10-08T23:59:44.083Z,16.60
